Time;durP1;ratioP1;P1;durP2;ratioP2;P2;SDS_P1;SDS_P2;PMS_P1;PMS_P2;Temp;Humidity;BMP_temperature;BMP_pressure;BME280_temperature;BME280_humidity;BME280_pressure;Samples;Min_cycle;Max_cycle;Signal;HPM_P1;HPM_P2
2021/11/29 00:01:25;;;;;;;18.58;14.05;;;;;;;4.32;73.39;98897.94;4959877;29;20328;-58
2021/11/29 00:04:11;;;;;;;18.95;13.90;;;;;;;4.45;72.98;98906.38;4952112;29;20035;-57
2021/11/29 00:06:57;;;;;;;22.35;15.02;;;;;;;4.43;72.91;98892.69;4946748;29;20031;-57
2021/11/29 00:09:43;;;;;;;19.15;14.38;;;;;;;4.07;73.45;98897.28;4957066;28;20030;-57
2021/11/29 00:12:29;;;;;;;20.63;14.52;;;;;;;4.31;73.50;98903.94;4959671;29;20031;-57
2021/11/29 00:15:15;;;;;;;18.33;14.50;;;;;;;4.23;73.06;98898.88;4947370;29;20095;-57
2021/11/29 00:18:02;;;;;;;18.63;13.93;;;;;;;4.30;73.47;98890.28;4958317;29;20344;-57
2021/11/29 00:20:48;;;;;;;16.25;13.27;;;;;;;4.34;72.67;98885.13;4962152;29;20061;-57
2021/11/29 00:23:34;;;;;;;19.42;14.27;;;;;;;4.10;74.03;98880.16;4961722;28;20130;-58
2021/11/29 00:26:21;;;;;;;17.80;14.43;;;;;;;4.17;73.36;98873.28;4947004;29;20024;-57
2021/11/29 00:29:07;;;;;;;21.42;15.05;;;;;;;4.13;73.54;98874.16;4958228;29;20032;-57
2021/11/29 00:31:53;;;;;;;20.60;14.77;;;;;;;4.20;73.04;98873.25;4961616;29;20120;-58
2021/11/29 00:34:39;;;;;;;18.45;13.93;;;;;;;4.12;74.38;98867.38;4954300;29;20267;-58
2021/11/29 00:37:25;;;;;;;20.67;14.43;;;;;;;4.25;74.02;98858.69;4960509;28;20035;-58
2021/11/29 00:40:11;;;;;;;18.00;14.38;;;;;;;4.11;74.34;98855.41;4961197;29;20051;-57
2021/11/29 00:42:57;;;;;;;21.50;15.02;;;;;;;4.14;74.44;98868.19;4961425;29;20035;-57
2021/11/29 00:45:43;;;;;;;19.77;15.25;;;;;;;4.07;74.70;98864.81;4959102;29;20039;-58
2021/11/29 00:48:29;;;;;;;23.20;17.13;;;;;;;3.84;75.11;98861.63;4946962;29;20039;-58
2021/11/29 00:51:15;;;;;;;25.88;17.58;;;;;;;4.06;75.58;98859.72;4961703;28;20046;-58
2021/11/29 00:54:01;;;;;;;22.42;17.58;;;;;;;3.97;75.52;98847.84;4960480;29;20260;-58
2021/11/29 00:56:47;;;;;;;21.98;16.60;;;;;;;4.07;75.31;98866.53;4944821;29;20031;-58
2021/11/29 00:59:33;;;;;;;23.48;17.98;;;;;;;3.94;75.38;98863.25;4943734;29;20321;-57
2021/11/29 01:02:20;;;;;;;24.90;17.88;;;;;;;4.09;75.81;98864.81;4961518;29;20216;-57
2021/11/29 01:05:08;;;;;;;22.40;16.88;;;;;;;4.20;75.70;98878.38;4959294;29;20320;-58
2021/11/29 01:07:54;;;;;;;24.92;18.00;;;;;;;4.07;75.18;98864.00;4958918;29;20040;-56
2021/11/29 01:10:40;;;;;;;26.02;18.55;;;;;;;4.03;75.12;98850.34;4946076;29;20024;-57
2021/11/29 01:13:26;;;;;;;25.92;18.02;;;;;;;4.08;75.07;98838.34;4959652;29;20028;-57
2021/11/29 01:16:12;;;;;;;24.98;17.63;;;;;;;4.19;75.27;98843.38;4961435;29;20311;-56
2021/11/29 01:18:58;;;;;;;22.20;17.13;;;;;;;4.07;75.41;98846.06;4959850;29;20069;-57
2021/11/29 01:21:44;;;;;;;25.85;17.05;;;;;;;3.77;76.73;98846.28;4962670;28;20643;-57
2021/11/29 01:24:30;;;;;;;25.88;16.95;;;;;;;3.97;75.45;98838.44;4960659;29;20031;-57
2021/11/29 01:27:17;;;;;;;23.05;17.25;;;;;;;4.02;75.44;98827.28;4961603;29;20097;-57
2021/11/29 01:30:05;;;;;;;21.80;16.40;;;;;;;3.86;75.64;98824.84;4959198;29;20062;-57
2021/11/29 01:32:51;;;;;;;23.25;17.50;;;;;;;3.67;76.55;98813.94;4961388;29;20031;-57
2021/11/29 01:35:37;;;;;;;21.88;16.58;;;;;;;3.85;76.50;98802.69;4957943;29;20084;-57
2021/11/29 01:38:23;;;;;;;20.92;15.07;;;;;;;3.63;76.83;98800.31;4961565;29;20342;-57
2021/11/29 01:41:12;;;;;;;20.83;16.17;;;;;;;3.73;77.09;98790.81;4954409;28;20055;-57
2021/11/29 01:43:58;;;;;;;25.77;16.45;;;;;;;3.61;77.05;98793.50;4950979;29;20090;-57
2021/11/29 01:46:45;;;;;;;24.63;17.33;;;;;;;3.80;77.27;98800.19;4957049;29;20765;-58
2021/11/29 01:49:31;;;;;;;21.48;16.33;;;;;;;3.82;77.00;98796.75;4955797;29;20047;-57
2021/11/29 01:52:18;;;;;;;25.25;18.23;;;;;;;3.66;77.53;98786.63;4963275;28;20339;-57
2021/11/29 01:55:04;;;;;;;24.85;16.77;;;;;;;3.61;78.05;98781.53;4962716;29;20241;-58
2021/11/29 01:57:50;;;;;;;26.20;17.77;;;;;;;3.71;77.37;98768.69;4963346;29;20035;-59
2021/11/29 02:00:40;;;;;;;24.20;18.20;;;;;;;3.38;77.68;98717.75;4963211;28;20031;-58
2021/11/29 02:03:27;;;;;;;25.85;18.52;;;;;;;3.59;78.21;98775.59;4963528;29;20030;-58
2021/11/29 02:06:13;;;;;;;25.55;18.50;;;;;;;3.59;78.31;98773.03;4950053;29;20257;-58
2021/11/29 02:09:00;;;;;;;26.17;18.33;;;;;;;3.47;79.52;98780.81;4962586;29;20032;-58
2021/11/29 02:11:47;;;;;;;29.45;20.30;;;;;;;3.58;79.16;98753.41;4964941;28;20031;-59
2021/11/29 02:14:33;;;;;;;23.73;18.90;;;;;;;3.63;78.33;98766.16;4963612;29;20034;-58
2021/11/29 02:17:19;;;;;;;29.95;20.70;;;;;;;3.78;78.10;98767.75;4963503;29;20174;-58
2021/11/29 02:20:06;;;;;;;28.75;19.55;;;;;;;3.74;78.52;98763.53;4963622;29;20035;-58
2021/11/29 02:22:52;;;;;;;30.17;21.05;;;;;;;3.50;79.84;98755.19;4964260;28;20058;-58
2021/11/29 02:25:38;;;;;;;29.52;21.02;;;;;;;3.47;79.70;98742.41;4963576;29;20055;-58
2021/11/29 02:28:24;;;;;;;29.90;20.98;;;;;;;3.77;78.92;98758.38;4964854;28;20073;-58
2021/11/29 02:31:15;;;;;;;34.47;22.60;;;;;;;3.32;80.71;98701.59;4964309;29;20034;-58
2021/11/29 02:34:14;;;;;;;35.38;23.63;;;;;;;3.40;80.82;98695.53;4947080;29;20039;-58
2021/11/29 02:37:05;;;;;;;36.58;24.45;;;;;;;3.68;81.13;98754.19;4945370;29;20058;-58
2021/11/29 02:39:51;;;;;;;34.30;23.23;;;;;;;3.59;82.44;98755.13;4948217;29;20276;-58
2021/11/29 02:42:38;;;;;;;41.72;26.48;;;;;;;3.77;82.27;98743.00;4960582;29;20051;-59
2021/11/29 02:45:25;;;;;;;37.63;26.35;;;;;;;3.75;81.71;98742.19;4949934;29;20434;-58
2021/11/29 02:48:11;;;;;;;36.72;22.65;;;;;;;3.59;82.35;98744.00;4952450;29;20071;-57
2021/11/29 02:50:57;;;;;;;41.67;26.95;;;;;;;3.73;82.02;98737.06;4951300;29;20041;-58
2021/11/29 02:53:43;;;;;;;38.72;25.48;;;;;;;3.90;81.91;98746.31;4963760;29;20023;-58
2021/11/29 02:56:30;;;;;;;36.03;24.75;;;;;;;4.00;81.52;98742.78;4962142;29;20318;-58
2021/11/29 02:59:18;;;;;;;40.05;24.40;;;;;;;3.49;82.86;98689.47;4956841;29;20098;-58
2021/11/29 03:02:08;;;;;;;37.08;24.05;;;;;;;3.52;82.38;98689.47;4955233;29;20035;-57
2021/11/29 03:04:54;;;;;;;35.90;24.05;;;;;;;3.93;81.67;98744.56;4962080;29;20031;-57
2021/11/29 03:07:40;;;;;;;39.75;23.52;;;;;;;3.66;82.39;98714.94;4963525;29;20031;-58
2021/11/29 03:10:26;;;;;;;31.23;22.55;;;;;;;3.87;82.30;98741.22;4960969;29;20024;-58
2021/11/29 03:13:12;;;;;;;33.97;24.00;;;;;;;3.54;84.40;98741.50;4961580;29;20031;-58
2021/11/29 03:15:58;;;;;;;34.70;24.42;;;;;;;3.53;84.57;98732.13;4963926;29;20094;-58
2021/11/29 03:18:45;;;;;;;36.53;25.08;;;;;;;3.43;85.46;98735.63;4961933;29;20099;-58
2021/11/29 03:21:31;;;;;;;38.45;24.58;;;;;;;3.40;86.28;98733.09;4963299;29;20236;-58
2021/11/29 03:24:17;;;;;;;36.00;24.05;;;;;;;3.48;85.83;98739.00;4963179;29;20027;-58
2021/11/29 03:27:04;;;;;;;38.65;24.58;;;;;;;3.53;85.47;98733.84;4955181;29;20027;-58
2021/11/29 03:29:50;;;;;;;42.20;25.35;;;;;;;3.56;85.55;98734.69;4958941;29;20054;-57
2021/11/29 03:32:38;;;;;;;42.92;26.35;;;;;;;3.65;85.89;98732.88;4955427;29;20070;-58
2021/11/29 03:35:24;;;;;;;38.58;25.05;;;;;;;3.59;86.11;98724.41;4958118;29;20037;-57
2021/11/29 03:38:11;;;;;;;40.58;25.33;;;;;;;3.60;87.09;98722.69;4962666;29;20027;-57
2021/11/29 03:40:59;;;;;;;40.65;26.67;;;;;;;3.56;87.17;98724.44;4960331;29;20055;-58
2021/11/29 03:43:45;;;;;;;38.08;24.95;;;;;;;3.61;87.37;98719.25;4945737;29;20039;-60
2021/11/29 03:46:31;;;;;;;43.42;25.75;;;;;;;3.62;87.03;98708.16;4960513;29;20023;-58
2021/11/29 03:49:17;;;;;;;43.55;27.10;;;;;;;3.43;88.59;98689.56;4955522;29;20038;-58
2021/11/29 03:52:04;;;;;;;42.72;27.17;;;;;;;3.59;87.88;98700.50;4962803;28;20031;-59
2021/11/29 03:54:52;;;;;;;40.10;27.70;;;;;;;3.58;89.05;98696.25;4962597;29;20035;-58
2021/11/29 03:57:38;;;;;;;42.03;27.83;;;;;;;3.58;88.17;98686.84;4961730;29;20031;-58
2021/11/29 04:00:24;;;;;;;39.50;26.45;;;;;;;3.79;88.04;98695.19;4961077;29;20030;-58
2021/11/29 04:03:10;;;;;;;42.03;27.23;;;;;;;3.69;88.09;98699.56;4944244;29;20031;-59
2021/11/29 04:05:57;;;;;;;41.00;25.58;;;;;;;3.36;89.44;98693.03;4961465;29;20091;-59
2021/11/29 04:08:43;;;;;;;44.33;28.85;;;;;;;3.62;89.50;98692.81;4961163;28;20100;-60
2021/11/29 04:11:30;;;;;;;43.10;27.88;;;;;;;3.68;89.28;98689.31;4944916;29;20035;-60
2021/11/29 04:14:16;;;;;;;43.83;26.58;;;;;;;3.61;89.44;98683.44;4962677;28;20027;-59
2021/11/29 04:17:02;;;;;;;47.08;29.38;;;;;;;3.65;90.44;98681.66;4960593;29;20082;-58
2021/11/29 04:19:48;;;;;;;42.08;26.85;;;;;;;3.65;89.21;98684.22;4961923;29;20019;-60
2021/11/29 04:22:37;;;;;;;43.65;27.92;;;;;;;3.68;90.46;98687.63;4961364;28;20019;-59
2021/11/29 04:25:24;;;;;;;43.63;26.77;;;;;;;3.48;90.73;98700.59;4947498;28;20049;-59
2021/11/29 04:28:10;;;;;;;42.70;27.02;;;;;;;3.63;91.11;98677.44;4956004;29;20031;-59
2021/11/29 04:30:56;;;;;;;43.47;27.42;;;;;;;3.56;91.15;98682.59;4954744;29;20095;-59
2021/11/29 04:33:43;;;;;;;44.03;27.13;;;;;;;3.41;91.50;98683.63;4945910;29;20058;-59
2021/11/29 04:36:29;;;;;;;43.95;27.77;;;;;;;3.67;91.46;98679.97;4951378;29;20026;-59
2021/11/29 04:39:16;;;;;;;39.40;26.20;;;;;;;3.55;91.78;98686.03;4952447;29;20063;-59
2021/11/29 04:42:03;;;;;;;41.15;25.38;;;;;;;3.41;91.69;98689.56;4935117;29;20094;-59
2021/11/29 04:44:49;;;;;;;46.15;27.52;;;;;;;3.52;91.63;98686.94;4947295;29;20229;-58
2021/11/29 04:47:35;;;;;;;45.20;27.50;;;;;;;3.51;92.40;98664.75;4952843;29;20035;-60
2021/11/29 04:50:21;;;;;;;39.88;25.17;;;;;;;3.66;92.10;98671.41;4945166;29;20031;-58
2021/11/29 04:53:07;;;;;;;45.90;26.42;;;;;;;3.50;91.85;98673.28;4952171;29;20037;-58
2021/11/29 04:55:53;;;;;;;43.53;26.42;;;;;;;3.55;92.75;98661.28;4958742;29;20106;-58
2021/11/29 04:58:39;;;;;;;42.22;26.17;;;;;;;3.49;92.45;98661.34;4967702;28;20082;-58
2021/11/29 05:01:25;;;;;;;44.65;27.90;;;;;;;3.57;92.52;98662.13;4953893;29;20042;-57
2021/11/29 05:04:11;;;;;;;43.42;26.30;;;;;;;3.56;92.94;98660.44;4958323;29;20039;-58
2021/11/29 05:06:57;;;;;;;48.47;28.70;;;;;;;3.50;92.57;98652.81;4959689;29;20035;-57
2021/11/29 05:09:44;;;;;;;49.28;27.02;;;;;;;3.62;92.80;98649.28;4960031;29;20150;-57
2021/11/29 05:12:30;;;;;;;49.63;28.23;;;;;;;3.70;92.82;98650.03;4959494;29;20102;-57
2021/11/29 05:15:16;;;;;;;50.85;28.95;;;;;;;3.69;92.38;98652.63;4959904;29;20058;-58
2021/11/29 05:18:02;;;;;;;42.47;25.48;;;;;;;3.57;92.84;98654.44;4960640;29;20253;-59
2021/11/29 05:20:50;;;;;;;48.72;26.38;;;;;;;3.33;92.72;98612.00;4959411;29;20207;-57
2021/11/29 05:23:35;;;;;;;45.53;26.58;;;;;;;3.50;93.57;98645.13;4961372;28;20232;-58
2021/11/29 05:26:24;;;;;;;48.38;29.77;;;;;;;3.43;93.00;98592.31;4963487;29;20038;-57
2021/11/29 05:29:14;;;;;;;43.53;25.25;;;;;;;3.68;93.33;98649.22;4964924;29;20055;-58
2021/11/29 05:32:00;;;;;;;43.92;25.45;;;;;;;3.68;93.85;98648.34;4963442;29;20205;-56
2021/11/29 05:34:46;;;;;;;47.35;28.02;;;;;;;3.71;93.94;98645.78;4964234;29;20038;-57
2021/11/29 05:37:32;;;;;;;48.50;28.65;;;;;;;3.71;93.47;98638.09;4963663;29;20138;-57
2021/11/29 05:40:19;;;;;;;46.83;27.45;;;;;;;3.74;93.85;98636.34;4946171;29;20294;-58
2021/11/29 05:43:05;;;;;;;52.63;28.33;;;;;;;3.68;94.29;98638.97;4963318;29;20035;-58
2021/11/29 05:45:51;;;;;;;46.17;23.90;;;;;;;3.57;93.90;98628.84;4948673;29;20369;-57
2021/11/29 05:48:37;;;;;;;48.92;27.10;;;;;;;3.71;94.38;98635.53;4963707;29;20023;-57
2021/11/29 05:51:23;;;;;;;53.10;28.98;;;;;;;3.82;94.37;98628.59;4963194;29;20070;-57
2021/11/29 05:54:09;;;;;;;50.50;28.13;;;;;;;3.85;94.42;98613.19;4961424;29;20028;-58
2021/11/29 05:56:55;;;;;;;54.10;28.48;;;;;;;3.90;93.53;98618.25;4962199;29;20031;-58
2021/11/29 05:59:41;;;;;;;54.78;29.70;;;;;;;3.94;94.14;98610.50;4963090;29;20023;-58
2021/11/29 06:02:27;;;;;;;54.03;28.33;;;;;;;4.11;93.31;98609.47;4962996;29;20034;-58
2021/11/29 06:05:15;;;;;;;51.80;28.85;;;;;;;3.61;93.98;98537.50;4962585;29;20046;-58
2021/11/29 06:08:02;;;;;;;55.20;27.88;;;;;;;3.89;94.74;98596.06;4963491;29;20031;-57
2021/11/29 06:10:47;;;;;;;54.28;28.58;;;;;;;3.95;94.16;98599.41;4963640;29;20034;-57
2021/11/29 06:13:33;;;;;;;53.25;28.73;;;;;;;3.74;95.36;98584.28;4962591;29;20336;-58
2021/11/29 06:16:20;;;;;;;51.50;28.95;;;;;;;3.91;94.81;98591.78;4963568;29;20027;-58
2021/11/29 06:19:06;;;;;;;50.00;28.23;;;;;;;4.06;94.83;98578.78;4962539;29;20328;-58
2021/11/29 06:21:52;;;;;;;56.65;29.88;;;;;;;4.26;94.15;98587.88;4963037;28;20050;-57
2021/11/29 06:24:38;;;;;;;52.55;27.83;;;;;;;4.21;93.50;98582.00;4962578;29;20023;-58
2021/11/29 06:27:24;;;;;;;55.90;30.30;;;;;;;4.11;94.53;98568.47;4963755;29;20419;-57
2021/11/29 06:30:11;;;;;;;50.45;28.60;;;;;;;4.26;94.17;98569.94;4961645;29;20031;-58
2021/11/29 06:32:57;;;;;;;53.95;29.42;;;;;;;4.40;93.63;98570.59;4961583;29;20031;-58
2021/11/29 06:35:44;;;;;;;57.10;31.05;;;;;;;3.94;92.75;98504.66;4952311;28;20023;-58
2021/11/29 06:38:30;;;;;;;53.13;29.02;;;;;;;4.44;93.30;98563.72;4956630;29;20031;-58
2021/11/29 06:41:16;;;;;;;55.95;30.15;;;;;;;4.42;93.97;98563.75;4961448;29;20090;-57
2021/11/29 06:44:02;;;;;;;55.50;29.85;;;;;;;4.59;92.94;98560.06;4962537;29;20042;-58
2021/11/29 06:46:48;;;;;;;53.03;30.88;;;;;;;4.32;94.63;98557.06;4958018;29;20027;-58
2021/11/29 06:49:34;;;;;;;53.20;29.02;;;;;;;4.33;94.52;98566.44;4959327;29;20039;-58
2021/11/29 06:52:20;;;;;;;55.78;28.08;;;;;;;4.37;93.90;98550.16;4962927;29;20042;-58
2021/11/29 06:55:11;;;;;;;51.92;28.65;;;;;;;3.96;94.05;98539.63;4958984;29;20109;-58
2021/11/29 06:57:57;;;;;;;52.95;28.75;;;;;;;4.39;95.02;98553.53;4963168;29;20224;-58
2021/11/29 07:00:43;;;;;;;55.55;28.17;;;;;;;4.48;94.54;98557.69;4950180;28;20316;-57
2021/11/29 07:03:30;;;;;;;52.92;27.67;;;;;;;4.31;94.81;98557.94;4956413;28;20282;-57
2021/11/29 07:06:16;;;;;;;53.15;29.77;;;;;;;4.51;94.97;98552.50;4962611;29;20031;-57
2021/11/29 07:09:03;;;;;;;51.45;28.70;;;;;;;4.33;95.38;98553.63;4944346;29;20058;-57
2021/11/29 07:11:49;;;;;;;80.47;40.10;;;;;;;4.52;95.54;98546.53;4962129;29;20039;-57
2021/11/29 07:14:35;;;;;;;54.53;30.23;;;;;;;4.64;94.30;98543.75;4961656;29;20031;-57
2021/11/29 07:17:21;;;;;;;50.60;27.83;;;;;;;4.70;94.40;98549.66;4962498;29;20023;-58
2021/11/29 07:20:08;;;;;;;54.10;28.58;;;;;;;4.68;94.30;98536.84;4961711;29;20023;-57
2021/11/29 07:22:54;;;;;;;49.75;26.95;;;;;;;4.71;94.56;98526.53;4944858;29;20594;-58
2021/11/29 07:25:40;;;;;;;54.00;28.35;;;;;;;4.72;93.88;98530.81;4946893;29;20026;-57
2021/11/29 07:28:27;;;;;;;52.67;27.50;;;;;;;4.83;93.95;98536.59;4945867;29;20031;-58
2021/11/29 07:31:13;;;;;;;48.35;27.48;;;;;;;4.75;94.61;98524.78;4960811;28;20233;-57
2021/11/29 07:33:59;;;;;;;53.38;26.65;;;;;;;4.84;94.42;98524.63;4960833;29;20125;-57
2021/11/29 07:36:45;;;;;;;50.25;27.83;;;;;;;4.79;94.55;98511.06;4961759;29;20027;-58
2021/11/29 07:39:31;;;;;;;51.97;28.00;;;;;;;4.87;94.49;98516.03;4958879;29;20090;-57
2021/11/29 07:42:17;;;;;;;57.05;28.67;;;;;;;4.97;94.04;98509.84;4948569;29;20031;-57
2021/11/29 07:45:06;;;;;;;49.03;27.30;;;;;;;5.13;93.33;98526.69;4960578;28;20035;-57
2021/11/29 07:47:52;;;;;;;51.75;28.70;;;;;;;5.06;93.53;98503.72;4955471;29;20194;-57
2021/11/29 07:50:38;;;;;;;49.03;26.45;;;;;;;5.03;93.36;98504.63;4961704;29;20053;-57
2021/11/29 07:53:24;;;;;;;49.97;27.15;;;;;;;5.05;94.09;98502.03;4959583;29;20611;-57
2021/11/29 07:56:10;;;;;;;52.83;27.42;;;;;;;4.96;94.28;98498.75;4961363;29;20054;-57
2021/11/29 07:58:57;;;;;;;48.42;27.40;;;;;;;4.96;94.24;98498.75;4960471;28;20030;-58
2021/11/29 08:01:43;;;;;;;52.10;28.00;;;;;;;5.03;94.22;98489.25;4954596;29;20031;-58
2021/11/29 08:04:29;;;;;;;52.92;27.42;;;;;;;5.19;93.90;98482.09;4953179;29;20023;-58
2021/11/29 08:07:17;;;;;;;49.40;27.80;;;;;;;5.01;94.97;98468.72;4960875;29;20062;-58
2021/11/29 08:10:04;;;;;;;53.38;28.38;;;;;;;5.19;93.58;98464.13;4960994;29;20035;-58
2021/11/29 08:12:51;;;;;;;51.78;28.30;;;;;;;5.08;94.08;98451.50;4961623;29;20024;-59
2021/11/29 08:15:37;;;;;;;52.60;27.92;;;;;;;5.21;94.20;98451.28;4956428;28;20024;-58
2021/11/29 08:18:23;;;;;;;55.35;29.63;;;;;;;5.11;94.59;98451.44;4959552;29;20137;-59
2021/11/29 08:21:09;;;;;;;50.70;28.45;;;;;;;5.32;93.88;98444.19;4948906;29;20036;-58
2021/11/29 08:23:55;;;;;;;57.03;30.77;;;;;;;5.37;93.27;98432.09;4947392;28;20105;-58
2021/11/29 08:26:41;;;;;;;53.67;28.88;;;;;;;5.26;93.58;98429.78;4956292;29;20031;-58
2021/11/29 08:29:27;;;;;;;58.83;30.42;;;;;;;5.42;93.40;98432.03;4949297;29;20027;-58
2021/11/29 08:32:13;;;;;;;58.28;31.05;;;;;;;5.58;92.55;98417.13;4958973;29;20023;-58
2021/11/29 08:34:59;;;;;;;56.50;32.20;;;;;;;5.31;93.20;98419.41;4961431;29;20050;-57
2021/11/29 08:37:46;;;;;;;59.00;31.20;;;;;;;5.14;94.18;98412.03;4961481;29;20066;-57
2021/11/29 08:40:34;;;;;;;62.42;33.03;;;;;;;5.38;93.36;98404.72;4961581;29;20340;-58
2021/11/29 08:43:20;;;;;;;61.20;32.63;;;;;;;5.33;93.23;98408.22;4945928;29;20026;-57
2021/11/29 08:46:06;;;;;;;61.63;32.13;;;;;;;5.39;92.94;98401.25;4960642;29;20031;-57
2021/11/29 08:48:52;;;;;;;63.53;32.13;;;;;;;5.30;93.32;98395.47;4961129;29;20133;-57
2021/11/29 08:51:38;;;;;;;65.10;34.95;;;;;;;5.38;93.39;98386.75;4960839;29;20224;-57
2021/11/29 08:54:25;;;;;;;66.82;34.22;;;;;;;5.08;93.83;98330.91;4956225;29;20027;-57
2021/11/29 08:57:11;;;;;;;64.70;34.47;;;;;;;5.29;93.32;98369.84;4962242;28;20038;-57
2021/11/29 08:59:57;;;;;;;66.68;35.83;;;;;;;5.31;93.41;98379.16;4960100;29;20032;-57
2021/11/29 09:02:45;;;;;;;68.38;35.33;;;;;;;5.23;94.03;98372.50;4965854;28;20042;-58
2021/11/29 09:05:31;;;;;;;76.63;36.42;;;;;;;5.34;93.97;98365.41;4948242;29;20028;-58
2021/11/29 09:08:17;;;;;;;73.88;37.97;;;;;;;5.59;92.86;98358.03;4948664;29;20098;-58
2021/11/29 09:11:03;;;;;;;72.22;35.72;;;;;;;5.30;93.50;98344.13;4964915;29;20034;-58
2021/11/29 09:13:49;;;;;;;71.55;37.78;;;;;;;5.52;93.22;98343.63;4954660;28;20216;-58
2021/11/29 09:16:36;;;;;;;73.93;36.10;;;;;;;5.70;92.76;98348.34;4964714;29;20078;-58
2021/11/29 09:19:22;;;;;;;73.65;38.15;;;;;;;5.72;92.27;98342.34;4950400;29;20042;-58
2021/11/29 09:22:08;;;;;;;70.95;38.22;;;;;;;5.57;92.29;98325.56;4961990;29;20034;-58
2021/11/29 09:24:54;;;;;;;72.78;39.58;;;;;;;5.73;92.25;98349.16;4951003;29;20097;-57
2021/11/29 09:27:43;;;;;;;78.18;37.35;;;;;;;5.47;93.19;98345.47;4963877;28;20023;-57
2021/11/29 09:30:29;;;;;;;74.65;36.60;;;;;;;5.21;93.68;98349.44;4961390;28;20035;-57
2021/11/29 09:33:16;;;;;;;73.35;39.90;;;;;;;5.21;93.25;98284.44;4951854;29;20031;-57
2021/11/29 09:36:03;;;;;;;76.15;40.38;;;;;;;5.26;92.98;98269.78;4960909;29;20032;-58
2021/11/29 09:38:49;;;;;;;63.22;35.40;;;;;;;5.64;92.96;98315.13;4954983;29;20023;-58
2021/11/29 09:41:35;;;;;;;73.05;37.75;;;;;;;5.50;92.57;98319.72;4962243;29;20094;-58
2021/11/29 09:44:21;;;;;;;67.13;37.05;;;;;;;5.76;92.25;98311.41;4964393;29;20031;-58
2021/11/29 09:47:07;;;;;;;68.28;36.35;;;;;;;5.53;92.78;98306.81;4963189;29;20321;-57
2021/11/29 09:49:57;;;;;;;75.07;38.17;;;;;;;5.63;92.67;98303.16;4954796;29;20106;-58
2021/11/29 09:52:43;;;;;;;73.78;37.17;;;;;;;5.64;92.52;98303.97;4956190;29;20078;-58
2021/11/29 09:55:30;;;;;;;66.20;36.28;;;;;;;5.61;92.81;98304.06;4963870;29;20058;-58
2021/11/29 09:58:16;;;;;;;74.57;38.55;;;;;;;5.60;92.88;98300.66;4957492;28;20032;-58
2021/11/29 10:01:04;;;;;;;70.53;37.83;;;;;;;5.62;92.17;98262.94;4959168;29;20042;-57
2021/11/29 10:03:50;;;;;;;69.13;37.70;;;;;;;5.80;92.36;98287.34;4950245;29;20032;-59
2021/11/29 10:06:36;;;;;;;71.57;37.85;;;;;;;5.73;91.82;98285.78;4956797;29;20338;-59
2021/11/29 10:09:30;;;;;;;61.80;34.45;;;;;;;5.98;91.66;98287.78;4950492;28;20031;-59
2021/11/29 10:12:19;;;;;;;65.63;37.13;;;;;;;5.95;91.35;98274.97;4955281;29;20039;-59
2021/11/29 10:15:27;;;;;;;72.50;37.42;;;;;;;5.69;92.46;98295.28;4948009;29;20075;-59
2021/11/29 10:18:13;;;;;;;68.78;36.47;;;;;;;5.62;92.69;98288.63;4962986;29;20029;-59
2021/11/29 10:21:08;;;;;;;63.97;36.85;;;;;;;5.12;93.79;98218.78;4959810;28;20079;-59
2021/11/29 10:23:58;;;;;;;66.80;37.58;;;;;;;5.67;93.23;98273.94;4947024;29;20043;-59
2021/11/29 10:26:54;;;;;;;69.40;36.63;;;;;;;5.32;92.65;98234.56;4947521;29;20027;-59
2021/11/29 10:29:50;;;;;;;63.17;35.65;;;;;;;5.26;92.98;98211.59;4949777;29;20015;-59
2021/11/29 10:32:42;;;;;;;63.47;36.13;;;;;;;5.80;92.69;98260.78;4956253;28;20095;-58
2021/11/29 10:35:36;;;;;;;62.85;36.58;;;;;;;5.87;92.01;98283.72;4953365;29;20189;-58
2021/11/29 10:38:29;;;;;;;60.35;34.40;;;;;;;5.76;92.32;98252.31;4961779;29;20154;-58
2021/11/29 10:41:25;;;;;;;61.78;34.85;;;;;;;5.91;91.95;98263.91;4960975;28;20332;-59
2021/11/29 10:44:37;;;;;;;60.90;32.47;;;;;;;5.77;92.32;98255.72;4951564;28;20036;-59
2021/11/29 10:47:24;;;;;;;64.87;34.77;;;;;;;5.67;93.20;98243.13;4961465;29;20027;-59
2021/11/29 10:50:10;;;;;;;60.47;33.33;;;;;;;5.68;93.48;98231.94;4957444;29;20028;-59
2021/11/29 10:53:10;;;;;;;58.25;33.83;;;;;;;5.70;93.41;98212.22;4963245;28;20037;-58
2021/11/29 10:55:59;;;;;;;59.30;34.75;;;;;;;5.79;93.17;98218.00;4961640;29;20282;-59
2021/11/29 10:58:48;;;;;;;63.53;34.13;;;;;;;5.73;92.73;98206.16;4947473;28;20557;-58
2021/11/29 11:01:41;;;;;;;58.45;33.25;;;;;;;5.77;93.63;98235.19;4963367;29;20328;-59
2021/11/29 11:04:33;;;;;;;64.18;34.17;;;;;;;5.64;93.55;98198.69;4944235;29;20023;-59
2021/11/29 11:07:24;;;;;;;59.85;33.50;;;;;;;5.49;94.50;98197.38;4948965;29;20023;-60
2021/11/29 11:10:15;;;;;;;58.92;30.75;;;;;;;5.33;94.50;98156.66;4960538;29;20412;-60
2021/11/29 11:13:02;;;;;;;59.72;32.60;;;;;;;5.60;94.44;98191.94;4961467;28;20059;-59
2021/11/29 11:15:48;;;;;;;59.63;33.92;;;;;;;5.77;93.64;98194.06;4961089;29;20023;-59
2021/11/29 11:18:38;;;;;;;51.10;29.88;;;;;;;5.69;94.26;98195.13;4957425;29;20043;-60
2021/11/29 11:21:24;;;;;;;56.88;30.98;;;;;;;5.59;94.52;98183.41;4950288;29;20024;-60
2021/11/29 11:24:24;;;;;;;54.03;31.77;;;;;;;5.67;94.58;98181.50;4962986;28;20031;-59
2021/11/29 11:27:11;;;;;;;60.05;33.90;;;;;;;5.82;94.09;98176.81;4960958;29;20324;-60
2021/11/29 11:30:09;;;;;;;53.92;30.73;;;;;;;5.68;93.27;98133.53;4960087;29;20111;-60
2021/11/29 11:33:06;;;;;;;55.47;30.80;;;;;;;5.87;93.21;98165.53;4962899;28;20122;-59
2021/11/29 11:35:53;;;;;;;54.15;31.77;;;;;;;6.00;92.83;98158.38;4954518;28;20038;-60
2021/11/29 11:38:39;;;;;;;55.83;32.03;;;;;;;5.83;93.70;98151.09;4961025;28;20031;-61
2021/11/29 11:41:25;;;;;;;60.17;33.83;;;;;;;5.85;93.97;98135.63;4954056;28;20607;-60
2021/11/29 11:44:11;;;;;;;65.38;34.40;;;;;;;5.87;93.40;98139.00;4961779;29;20236;-60
2021/11/29 11:46:59;;;;;;;58.97;31.25;;;;;;;5.28;94.09;98067.84;4954668;29;20095;-58
2021/11/29 11:49:47;;;;;;;51.85;29.40;;;;;;;5.59;94.72;98128.66;4961677;29;20058;-59
2021/11/29 11:52:33;;;;;;;59.13;31.55;;;;;;;5.61;95.00;98124.31;4962614;29;20127;-59
2021/11/29 11:55:22;;;;;;;57.00;30.63;;;;;;;5.71;94.42;98107.75;4961197;29;20035;-58
2021/11/29 11:58:14;;;;;;;52.85;30.05;;;;;;;5.77;94.28;98124.72;4961621;29;20027;-58
2021/11/29 12:01:16;;;;;;;56.95;31.10;;;;;;;5.86;93.71;98096.22;4945233;29;20109;-59
2021/11/29 12:04:02;;;;;;;53.05;29.35;;;;;;;5.67;94.61;98101.88;4945017;29;20038;-59
2021/11/29 12:06:49;;;;;;;57.85;29.15;;;;;;;5.54;95.25;98090.22;4948964;28;20031;-59
2021/11/29 12:09:38;;;;;;;62.53;30.80;;;;;;;5.56;95.47;98085.06;4958377;29;20039;-59
2021/11/29 12:12:25;;;;;;;54.95;31.42;;;;;;;5.61;95.55;98086.63;4948532;29;20396;-60
2021/11/29 12:15:16;;;;;;;57.33;27.90;;;;;;;5.38;96.35;98084.69;4959500;29;20328;-58
2021/11/29 12:18:02;;;;;;;58.38;31.13;;;;;;;5.49;95.97;98085.22;4957013;29;20039;-58
2021/11/29 12:21:26;;;;;;;54.10;27.42;;;;;;;5.41;96.23;98076.88;4948991;29;20030;-59
2021/11/29 12:24:17;;;;;;;56.75;29.05;;;;;;;5.31;96.15;98045.47;4895441;29;20230;-59
2021/11/29 12:27:06;;;;;;;55.25;28.50;;;;;;;5.53;95.57;98076.56;4959579;28;20039;-58
2021/11/29 12:29:55;;;;;;;55.70;29.33;;;;;;;5.17;95.88;98009.09;4947269;29;20062;-59
2021/11/29 12:33:01;;;;;;;61.30;30.08;;;;;;;5.65;95.61;98059.97;4958892;29;20027;-58
2021/11/29 12:36:01;;;;;;;52.15;28.77;;;;;;;5.63;94.97;98048.91;4962169;29;20027;-58
2021/11/29 12:38:49;;;;;;;56.70;28.88;;;;;;;5.67;95.39;98044.50;4960902;29;20039;-59
2021/11/29 12:41:37;;;;;;;54.00;28.13;;;;;;;5.60;95.60;98033.59;4944204;29;20197;-59
2021/11/29 12:45:09;;;;;;;55.05;28.80;;;;;;;5.48;96.51;98044.19;4942864;29;20324;-59
2021/11/29 12:48:11;;;;;;;51.55;27.50;;;;;;;5.26;96.20;97995.16;4950850;29;20043;-59
2021/11/29 12:50:58;;;;;;;46.55;26.77;;;;;;;5.65;96.10;98042.00;4956640;29;20039;-59
2021/11/29 12:53:44;;;;;;;50.25;26.17;;;;;;;5.62;95.75;98034.38;4958926;29;20019;-59
2021/11/29 12:56:30;;;;;;;45.72;26.20;;;;;;;5.58;96.12;98032.78;4959497;29;20035;-59
2021/11/29 12:59:19;;;;;;;48.35;27.50;;;;;;;5.70;95.76;98037.56;4958352;29;20077;-60